createdAt,value
2023-01-04T00:00:42.173Z,8.29
2023-01-04T00:04:07.316Z,8.26
2023-01-04T00:07:32.376Z,8.24
2023-01-04T00:10:57.603Z,8.25
2023-01-04T00:14:22.797Z,8.27
2023-01-04T00:17:47.995Z,8.28
2023-01-04T00:21:13.173Z,8.28
2023-01-04T00:24:38.373Z,8.25
2023-01-04T00:28:03.682Z,8.22
2023-01-04T00:31:29.046Z,8.19
2023-01-04T00:34:54.131Z,8.18
2023-01-04T00:38:19.327Z,8.12
2023-01-04T00:42:01.110Z,8.1
2023-01-04T00:45:09.774Z,8.09
2023-01-04T00:48:39.384Z,8.09
2023-01-04T00:52:00.240Z,8.17
2023-01-04T00:55:25.440Z,8.21
2023-01-04T00:58:50.684Z,8.25
2023-01-04T01:02:16.184Z,8.26
2023-01-04T01:05:41.106Z,8.24
2023-01-04T01:09:06.349Z,8.23
2023-01-04T01:12:31.539Z,8.21
2023-01-04T01:15:56.843Z,8.17
2023-01-04T01:19:22.016Z,8.14
2023-01-04T01:22:47.191Z,8.11
2023-01-04T01:26:12.455Z,8.08
2023-01-04T01:29:37.643Z,8.07
2023-01-04T01:33:02.845Z,8.08
2023-01-04T01:36:28.126Z,8.08
2023-01-04T01:39:53.284Z,8.08
2023-01-04T01:43:18.513Z,8.1
2023-01-04T01:46:43.793Z,8.17
2023-01-04T01:50:08.943Z,8.19
2023-01-04T01:53:34.175Z,8.2
2023-01-04T01:56:59.366Z,8.25
2023-01-04T02:00:24.577Z,8.28
2023-01-04T02:03:49.855Z,8.27
2023-01-04T02:07:14.999Z,8.23
2023-01-04T02:10:40.229Z,8.2
2023-01-04T02:14:05.437Z,8.15
2023-01-04T02:17:30.655Z,8.17
2023-01-04T02:20:55.850Z,8.2
2023-01-04T02:24:21.071Z,8.19
2023-01-04T02:27:46.265Z,8.21
2023-01-04T02:31:11.501Z,8.22
2023-01-04T02:34:36.578Z,8.26
2023-01-04T02:38:01.798Z,8.26
2023-01-04T02:41:26.967Z,8.27
2023-01-04T02:44:52.173Z,8.26
2023-01-04T02:48:17.298Z,8.23
2023-01-04T02:51:42.486Z,8.17
2023-01-04T02:55:07.700Z,8.14
2023-01-04T02:58:32.919Z,8.11
2023-01-04T03:01:58.348Z,8.06
2023-01-04T03:05:23.362Z,8.04
2023-01-04T03:08:48.584Z,8.02
2023-01-04T03:12:13.795Z,7.97
2023-01-04T03:15:39.014Z,7.97
2023-01-04T03:19:04.278Z,7.93
2023-01-04T03:22:29.382Z,7.9
2023-01-04T03:25:54.602Z,7.9
2023-01-04T03:29:19.804Z,7.93
2023-01-04T03:32:44.973Z,7.98
2023-01-04T03:36:10.196Z,8.04
2023-01-04T03:39:35.413Z,8.08
2023-01-04T03:43:00.575Z,8.09
2023-01-04T03:46:25.779Z,8.11
2023-01-04T03:49:50.900Z,8.1
2023-01-04T03:53:16.139Z,8.09
2023-01-04T03:56:41.307Z,8.08
2023-01-04T04:00:06.498Z,8.07
2023-01-04T04:03:31.807Z,8.08
2023-01-04T04:06:56.850Z,8.08
2023-01-04T04:10:22.103Z,8.06
2023-01-04T04:13:47.297Z,8.04
2023-01-04T04:17:12.448Z,7.99
2023-01-04T04:20:37.679Z,7.98
2023-01-04T04:24:02.880Z,7.98
2023-01-04T04:27:28.101Z,7.99
2023-01-04T04:30:53.250Z,7.97
2023-01-04T04:34:18.562Z,7.95
2023-01-04T04:37:43.758Z,7.95
2023-01-04T04:41:09.007Z,7.96
2023-01-04T04:44:34.256Z,7.92
2023-01-04T04:47:59.470Z,7.89
2023-01-04T04:51:24.712Z,7.9
2023-01-04T04:54:49.971Z,7.91
2023-01-04T04:58:15.171Z,7.91
2023-01-04T05:01:40.720Z,7.86
2023-01-04T05:05:05.859Z,7.81
2023-01-04T05:08:31.117Z,7.79
2023-01-04T05:11:56.288Z,7.75
2023-01-04T05:15:21.471Z,7.77
2023-01-04T05:18:46.705Z,7.77
2023-01-04T05:22:11.930Z,7.74
2023-01-04T05:25:37.140Z,7.72
2023-01-04T05:29:02.326Z,7.75
2023-01-04T05:32:27.536Z,7.76
2023-01-04T05:35:52.804Z,7.75
2023-01-04T05:39:18.044Z,7.68
2023-01-04T05:42:43.278Z,7.59
2023-01-04T05:46:08.583Z,7.55
2023-01-04T05:49:33.737Z,7.53
2023-01-04T05:52:58.988Z,7.52
2023-01-04T05:56:24.224Z,7.56
2023-01-04T05:59:49.529Z,7.65
2023-01-04T06:03:14.927Z,7.82
2023-01-04T06:06:40.013Z,7.93
2023-01-04T06:10:05.278Z,7.88
2023-01-04T06:13:30.471Z,7.79
2023-01-04T06:16:55.707Z,7.7
2023-01-04T06:20:20.886Z,7.65
2023-01-04T06:23:46.091Z,7.59
2023-01-04T06:27:11.865Z,7.57
2023-01-04T06:30:37.091Z,7.56
2023-01-04T06:34:02.291Z,7.57
2023-01-04T06:37:27.629Z,7.54
2023-01-04T06:40:52.967Z,7.49
2023-01-04T06:44:18.249Z,7.45
2023-01-04T06:47:43.494Z,7.45
2023-01-04T06:51:08.805Z,7.41
2023-01-04T06:54:34.110Z,7.37
2023-01-04T06:57:59.885Z,7.4
2023-01-04T07:01:24.754Z,7.37
2023-01-04T07:04:50.042Z,7.34
2023-01-04T07:08:15.183Z,7.31
2023-01-04T07:11:40.394Z,7.27
2023-01-04T07:15:37.656Z,7.23
2023-01-04T07:18:30.968Z,7.21
2023-01-04T07:21:56.288Z,7.17
2023-01-04T07:25:21.573Z,7.18
2023-01-04T07:28:46.848Z,7.19
2023-01-04T07:32:14.071Z,7.15
2023-01-04T07:35:37.480Z,7.06
2023-01-04T07:39:02.750Z,6.99
2023-01-04T07:42:28.013Z,6.93
2023-01-04T07:45:53.344Z,6.82
2023-01-04T07:49:18.812Z,6.79
2023-01-04T07:52:43.923Z,6.76
2023-01-04T07:56:12.363Z,6.64
2023-01-04T07:59:34.438Z,6.53
2023-01-04T08:02:59.892Z,6.41
2023-01-04T08:06:25.008Z,6.35
2023-01-04T08:09:50.348Z,6.31
2023-01-04T08:13:15.627Z,6.27
2023-01-04T08:16:40.887Z,6.24
2023-01-04T08:20:06.149Z,6.24
2023-01-04T08:23:31.448Z,6.23
2023-01-04T08:26:56.822Z,6.24
2023-01-04T08:30:22.047Z,6.27
2023-01-04T08:33:47.275Z,6.29
2023-01-04T08:37:12.565Z,6.34
2023-01-04T08:40:58.391Z,6.36
2023-01-04T08:44:03.149Z,6.36
2023-01-04T08:47:28.306Z,6.4
2023-01-04T08:50:53.613Z,6.44
2023-01-04T08:54:18.887Z,6.48
2023-01-04T08:57:44.089Z,6.51
2023-01-04T09:01:09.457Z,6.5
2023-01-04T09:04:34.606Z,6.51
2023-01-04T09:07:59.740Z,6.52
2023-01-04T09:11:25.003Z,6.59
2023-01-04T09:14:50.182Z,6.61
2023-01-04T09:18:31.540Z,6.62
2023-01-04T09:21:40.633Z,6.67
2023-01-04T09:25:05.855Z,6.71
2023-01-04T09:28:31.059Z,6.74
2023-01-04T09:31:56.364Z,6.73
2023-01-04T09:35:21.532Z,6.76
2023-01-04T09:38:46.733Z,6.77
2023-01-04T09:42:11.947Z,6.82
2023-01-04T09:45:37.180Z,6.83
2023-01-04T09:49:02.413Z,6.8
2023-01-04T09:52:27.649Z,6.8
2023-01-04T09:55:52.920Z,6.79
2023-01-04T09:59:18.136Z,6.8
2023-01-04T10:02:43.517Z,6.86
2023-01-04T10:06:08.594Z,6.88
2023-01-04T10:09:33.847Z,6.9
2023-01-04T10:13:00.060Z,6.92
2023-01-04T10:16:36.829Z,6.96
2023-01-04T10:23:14.718Z,6.98
2023-01-04T10:26:39.985Z,7.02
2023-01-04T10:30:05.183Z,7.05
2023-01-04T10:33:30.397Z,7.08
2023-01-04T10:36:55.650Z,7.14
2023-01-04T10:40:20.923Z,7.19
2023-01-04T10:44:10.286Z,7.21
2023-01-04T10:47:11.601Z,7.19
2023-01-04T10:50:36.724Z,7.22
2023-01-04T10:54:01.962Z,7.28
2023-01-04T10:57:27.202Z,7.3
2023-01-04T11:00:52.590Z,7.31
2023-01-04T11:04:17.807Z,7.29
2023-01-04T11:07:43.010Z,7.31
2023-01-04T11:11:08.272Z,7.32
2023-01-04T11:14:37.361Z,7.32
2023-01-04T11:17:59.215Z,7.34
2023-01-04T11:21:24.408Z,7.35
2023-01-04T11:25:24.456Z,7.34
2023-01-04T11:28:15.053Z,7.34
2023-01-04T11:31:40.407Z,7.35
2023-01-04T11:35:05.636Z,7.33
2023-01-04T11:38:31.268Z,7.33
2023-01-04T11:42:02.494Z,7.31
2023-01-04T11:45:21.815Z,7.35
2023-01-04T11:48:47.078Z,7.42
2023-01-04T11:52:12.359Z,7.48
2023-01-04T11:55:37.595Z,7.55
2023-01-04T11:59:02.877Z,7.6
2023-01-04T12:02:59.086Z,7.63
2023-01-04T12:05:53.390Z,7.64
2023-01-04T12:09:18.689Z,7.7
2023-01-04T12:12:43.893Z,7.72
2023-01-04T12:16:09.199Z,7.7
2023-01-04T12:19:34.493Z,7.67
2023-01-04T12:22:59.751Z,7.67
2023-01-04T12:26:25.028Z,7.71
2023-01-04T12:29:50.266Z,7.72
2023-01-04T12:33:15.533Z,7.76
2023-01-04T12:36:40.826Z,7.77
2023-01-04T12:40:06.100Z,7.79
2023-01-04T12:43:31.379Z,7.81
2023-01-04T12:46:56.610Z,7.87
2023-01-04T12:50:21.902Z,7.89
2023-01-04T12:53:47.189Z,7.92
2023-01-04T12:57:12.478Z,7.92
2023-01-04T13:00:37.755Z,7.91
2023-01-04T13:04:05.864Z,7.91
2023-01-04T13:07:28.297Z,7.96
2023-01-04T13:10:53.682Z,8.03
2023-01-04T13:14:18.818Z,8.09
2023-01-04T13:17:44.150Z,8.14
2023-01-04T13:21:09.392Z,8.17
2023-01-04T13:24:34.670Z,8.21
2023-01-04T13:27:59.945Z,8.23
2023-01-04T13:31:25.207Z,8.26
2023-01-04T13:34:50.479Z,8.31
2023-01-04T13:38:15.723Z,8.32
2023-01-04T13:41:41.007Z,8.4
2023-01-04T13:45:22.219Z,8.45
2023-01-04T13:48:31.924Z,8.46
2023-01-04T13:52:06.469Z,8.51
2023-01-04T13:55:22.458Z,8.55
2023-01-04T13:59:12.654Z,8.58
2023-01-04T14:02:38.078Z,8.59
2023-01-04T14:06:04.619Z,8.54
2023-01-04T14:09:28.584Z,8.54
2023-01-04T14:12:53.803Z,8.58
2023-01-04T14:16:19.156Z,8.62
2023-01-04T14:19:44.477Z,8.67
2023-01-04T14:23:09.729Z,8.66
2023-01-04T14:26:35.047Z,8.69
2023-01-04T14:30:00.285Z,8.69
2023-01-04T15:03:53.667Z,6.68
2023-01-04T15:07:18.844Z,7.69
2023-01-04T15:10:44.111Z,7.95
2023-01-04T15:14:09.412Z,8.19
2023-01-04T15:17:34.792Z,8.38
2023-01-04T15:21:00.045Z,8.5
2023-01-04T15:24:25.298Z,8.63
2023-01-04T15:27:50.567Z,8.72
2023-01-04T15:31:15.890Z,8.79
2023-01-04T15:34:46.564Z,8.83
2023-01-04T15:38:06.935Z,8.88
2023-01-04T15:41:31.796Z,8.89
2023-01-04T15:44:57.121Z,8.91
2023-01-04T15:48:22.416Z,8.92
2023-01-04T15:51:47.661Z,8.95
2023-01-04T15:55:12.964Z,8.97
2023-01-04T15:58:38.192Z,8.97
2023-01-04T16:02:03.826Z,9.01
2023-01-04T16:05:29.017Z,9.03
2023-01-04T16:08:54.307Z,9.03
2023-01-04T16:12:19.830Z,9.05
2023-01-04T16:15:45.121Z,9.06
2023-01-04T16:19:10.357Z,9.06
2023-01-04T16:22:35.619Z,9.06
2023-01-04T16:26:00.887Z,9.04
2023-01-04T16:29:26.225Z,9.04
2023-01-04T16:32:51.452Z,9.06
2023-01-04T16:36:16.745Z,9.1
2023-01-04T16:40:06.112Z,9.27
2023-01-04T16:43:07.333Z,9.29
2023-01-04T16:46:32.762Z,9.29
2023-01-04T16:49:57.945Z,9.29
2023-01-04T16:53:23.183Z,9.42
2023-01-04T16:56:48.559Z,9.41
2023-01-04T17:00:13.816Z,9.39
2023-01-04T17:03:39.223Z,9.34
2023-01-04T17:07:04.389Z,9.31
2023-01-04T17:10:29.967Z,9.3
2023-01-04T17:13:54.960Z,9.29
2023-01-04T17:17:20.268Z,9.32
2023-01-04T17:20:45.528Z,9.35
2023-01-04T17:24:10.774Z,9.38
2023-01-04T17:27:36.136Z,9.39
2023-01-04T17:31:02.128Z,9.41
2023-01-04T17:34:27.433Z,9.46
2023-01-04T17:37:52.699Z,9.46
2023-01-04T17:41:17.938Z,9.48
2023-01-04T17:44:43.178Z,9.49
2023-01-04T17:48:09.126Z,9.49
2023-01-04T17:51:34.943Z,9.51
2023-01-04T17:55:01.676Z,9.55
2023-01-04T17:58:26.735Z,9.6
2023-01-04T18:01:53.085Z,9.65
2023-01-04T18:05:19.050Z,9.69
2023-01-04T18:08:44.612Z,9.72
2023-01-04T18:12:10.195Z,9.73
2023-01-04T18:15:43.802Z,9.72
2023-01-04T18:19:03.556Z,9.72
2023-01-04T18:22:29.329Z,9.76
2023-01-04T18:25:55.276Z,9.81
2023-01-04T18:29:21.223Z,9.83
2023-01-04T18:32:47.106Z,9.85
2023-01-04T18:36:13.216Z,9.86
2023-01-04T18:39:39.472Z,9.88
2023-01-04T18:44:06.068Z,9.85
2023-01-04T18:47:22.532Z,9.81
2023-01-04T18:50:49.194Z,9.85
2023-01-04T18:54:16.418Z,9.87
2023-01-04T18:57:42.806Z,9.9
2023-01-04T19:01:09.971Z,9.93
2023-01-04T19:04:36.051Z,9.96
2023-01-04T19:08:02.582Z,10.01
2023-01-04T19:11:29.035Z,10.03
2023-01-04T19:14:55.323Z,10.03
2023-01-04T19:18:20.521Z,10.02
2023-01-04T19:21:45.975Z,10.04
2023-01-04T19:25:11.088Z,10.09
2023-01-04T19:28:36.365Z,10.09
2023-01-04T19:32:01.722Z,10.08
2023-01-04T19:35:27.051Z,10.06
2023-01-04T19:38:52.411Z,10.06
2023-01-04T19:42:17.670Z,10.07
2023-01-04T19:45:43.069Z,10.09
2023-01-04T19:49:14.428Z,10.1
2023-01-04T19:52:34.658Z,10.11
2023-01-04T19:56:00.005Z,10.13
2023-01-04T19:59:25.441Z,10.16
2023-01-04T20:02:50.956Z,10.14
2023-01-04T20:07:10.101Z,10.19
2023-01-04T20:10:35.409Z,10.22
2023-01-04T20:14:00.706Z,10.24
2023-01-04T20:17:25.962Z,10.2
2023-01-04T20:20:51.301Z,10.22
2023-01-04T20:24:16.756Z,10.27
2023-01-04T20:27:42.075Z,10.29
2023-01-04T20:31:07.502Z,10.28
2023-01-04T20:34:32.791Z,10.29
2023-01-04T20:37:58.220Z,10.33
2023-01-04T20:41:23.498Z,10.37
2023-01-04T20:44:49.054Z,10.4
2023-01-04T20:48:14.444Z,10.42
2023-01-04T20:51:39.849Z,10.45
2023-01-04T20:55:05.312Z,10.45
2023-01-04T20:58:31.355Z,10.46
2023-01-04T21:01:56.859Z,10.49
2023-01-04T21:05:22.147Z,10.53
2023-01-04T21:08:47.484Z,10.56
2023-01-04T21:12:12.824Z,10.54
2023-01-04T21:15:38.252Z,10.51
2023-01-04T21:19:03.466Z,10.51
2023-01-04T21:22:28.859Z,10.5
2023-01-04T21:25:54.144Z,10.51
2023-01-04T21:29:19.462Z,10.54
2023-01-04T21:32:44.815Z,10.57
2023-01-04T21:36:10.174Z,10.59
2023-01-04T21:39:35.516Z,10.59
2023-01-04T21:43:00.759Z,10.6
2023-01-04T21:46:26.137Z,10.61
2023-01-04T21:49:51.329Z,10.64
2023-01-04T21:53:16.687Z,10.62
2023-01-04T21:56:42.064Z,10.63
2023-01-04T22:00:08.167Z,10.64
2023-01-04T22:03:33.441Z,10.65
2023-01-04T22:06:58.834Z,10.65
2023-01-04T22:10:24.096Z,10.65
2023-01-04T22:13:49.374Z,10.68
2023-01-04T22:17:14.631Z,10.69
2023-01-04T22:20:40.065Z,10.72
2023-01-04T22:24:05.351Z,10.71
2023-01-04T22:27:30.671Z,10.72
2023-01-04T22:30:56.044Z,10.74
2023-01-04T22:34:21.325Z,10.76
2023-01-04T22:37:46.633Z,10.78
2023-01-04T22:41:12.081Z,10.81
2023-01-04T22:44:37.411Z,10.82
2023-01-04T22:48:02.785Z,10.85
2023-01-04T22:51:28.143Z,10.85
2023-01-04T22:54:53.514Z,10.87
2023-01-04T22:58:18.894Z,10.87
2023-01-04T23:01:44.225Z,10.85
2023-01-04T23:05:09.550Z,10.83
2023-01-04T23:08:34.856Z,10.85
2023-01-04T23:12:00.305Z,10.86
2023-01-04T23:15:25.595Z,10.83
2023-01-04T23:18:50.893Z,10.81
2023-01-04T23:22:16.201Z,10.8
2023-01-04T23:25:41.482Z,10.8
2023-01-04T23:29:06.770Z,10.82
2023-01-04T23:32:32.132Z,10.83
2023-01-04T23:35:57.446Z,10.83
2023-01-04T23:39:22.786Z,10.85
2023-01-04T23:42:48.102Z,10.86
2023-01-04T23:46:12.025Z,10.85
2023-01-04T23:49:37.331Z,10.85
2023-01-04T23:53:02.631Z,10.82
2023-01-04T23:56:28.056Z,10.81
2023-01-04T23:59:53.311Z,10.81
